createdAt,value
2022-10-25T00:00:29.139Z,3.65
2022-10-25T00:02:58.446Z,2.30
2022-10-25T00:05:26.396Z,5.35
2022-10-25T00:07:54.355Z,5.25
2022-10-25T00:10:24.926Z,3.55
2022-10-25T00:12:53.882Z,2.53
2022-10-25T00:15:21.953Z,3.17
2022-10-25T00:17:50.180Z,4.90
2022-10-25T00:20:20.233Z,2.33
2022-10-25T00:22:48.557Z,2.47
2022-10-25T00:25:17.157Z,3.33
2022-10-25T00:27:45.120Z,3.17
2022-10-25T00:30:14.263Z,3.40
2022-10-25T00:32:42.226Z,4.95
2022-10-25T00:35:10.933Z,3.20
2022-10-25T00:37:40.292Z,1.58
2022-10-25T00:40:09.636Z,2.33
2022-10-25T00:42:37.628Z,1.95
2022-10-25T00:45:20.585Z,3.75
2022-10-25T00:47:53.685Z,3.25
2022-10-25T00:50:33.830Z,2.75
2022-10-25T00:53:09.194Z,2.38
2022-10-25T00:55:40.725Z,3.60
2022-10-25T00:58:13.486Z,4.97
2022-10-25T01:00:41.666Z,2.53
2022-10-25T01:03:09.930Z,5.00
2022-10-25T01:05:39.423Z,12.63
2022-10-25T01:08:09.068Z,6.47
2022-10-25T01:10:38.827Z,3.22
2022-10-25T01:13:07.008Z,6.15
2022-10-25T01:15:42.533Z,2.50
2022-10-25T01:18:16.868Z,4.45
2022-10-25T01:21:10.309Z,5.57
2022-10-25T01:23:54.335Z,3.38
2022-10-25T01:26:51.892Z,2.28
2022-10-25T01:32:08.072Z,2.38
2022-10-25T01:34:41.786Z,3.55
2022-10-25T01:37:15.891Z,3.28
2022-10-25T01:39:49.398Z,3.40
2022-10-25T01:42:25.016Z,5.25
2022-10-25T01:45:07.162Z,3.72
2022-10-25T01:47:40.605Z,3.38
2022-10-25T01:50:12.313Z,2.42
2022-10-25T01:52:40.222Z,3.42
2022-10-25T01:55:12.483Z,3.92
2022-10-25T01:57:57.079Z,4.60
2022-10-25T02:00:25.783Z,4.00
2022-10-25T02:03:15.723Z,4.00
2022-10-25T02:05:57.300Z,4.53
2022-10-25T02:08:35.754Z,3.63
2022-10-25T02:11:10.173Z,2.90
2022-10-25T02:13:47.456Z,4.38
2022-10-25T02:16:20.473Z,6.88
2022-10-25T02:18:54.587Z,4.35
2022-10-25T02:21:25.191Z,3.72
2022-10-25T02:23:55.175Z,5.05
2022-10-25T02:26:23.451Z,6.97
2022-10-25T02:28:52.357Z,5.10
2022-10-25T02:31:22.605Z,9.45
2022-10-25T02:33:52.098Z,5.25
2022-10-25T02:36:21.849Z,6.13
2022-10-25T02:38:51.023Z,3.47
2022-10-25T02:41:19.793Z,6.45
2022-10-25T02:43:48.125Z,6.50
2022-10-25T02:46:19.698Z,7.97
2022-10-25T02:48:48.082Z,4.22
2022-10-25T02:51:18.380Z,6.07
2022-10-25T02:53:46.590Z,6.40
2022-10-25T02:56:17.005Z,4.95
2022-10-25T02:58:45.489Z,5.10
2022-10-25T03:01:14.850Z,6.85
2022-10-25T03:03:43.177Z,8.70
2022-10-25T03:06:12.179Z,5.35
2022-10-25T03:08:42.823Z,7.72
2022-10-25T03:11:11.913Z,7.65
2022-10-25T03:13:40.014Z,6.78
2022-10-25T03:16:08.860Z,8.48
2022-10-25T03:18:36.837Z,12.73
2022-10-25T03:21:06.115Z,7.43
2022-10-25T03:23:35.191Z,8.07
2022-10-25T03:26:04.725Z,6.75
2022-10-25T03:28:32.801Z,8.23
2022-10-25T03:31:01.552Z,6.72
2022-10-25T03:36:02.674Z,9.38
2022-10-25T03:38:30.608Z,8.75
2022-10-25T03:40:58.537Z,8.23
2022-10-25T03:43:28.309Z,8.60
2022-10-25T03:45:56.247Z,8.52
2022-10-25T03:48:24.427Z,9.85
2022-10-25T03:51:43.627Z,11.40
2022-10-25T03:55:09.124Z,7.68
2022-10-25T04:00:44.543Z,8.38
2022-10-25T04:03:12.786Z,7.35
2022-10-25T04:05:40.686Z,9.88
2022-10-25T04:08:08.785Z,13.00
2022-10-25T04:10:36.680Z,8.90
2022-10-25T04:13:04.691Z,9.93
2022-10-25T04:15:33.077Z,9.23
2022-10-25T04:18:02.401Z,12.30
2022-10-25T04:20:30.290Z,10.65
2022-10-25T04:22:58.679Z,9.10
2022-10-25T04:25:28.640Z,9.02
2022-10-25T04:27:56.731Z,9.55
2022-10-25T04:30:24.677Z,9.45
2022-10-25T04:32:52.697Z,7.85
2022-10-25T04:35:22.077Z,11.00
2022-10-25T04:37:51.883Z,8.57
2022-10-25T04:40:24.045Z,7.88
2022-10-25T04:42:52.944Z,9.13
2022-10-25T04:45:20.883Z,14.13
2022-10-25T04:47:49.036Z,10.30
2022-10-25T04:50:17.475Z,8.27
2022-10-25T04:52:47.177Z,6.80
2022-10-25T04:55:15.497Z,6.82
2022-10-25T04:57:43.412Z,8.68
2022-10-25T05:00:12.580Z,11.50
2022-10-25T05:02:40.589Z,7.13
2022-10-25T05:05:09.234Z,8.20
2022-10-25T05:07:37.255Z,5.97
2022-10-25T05:10:07.268Z,7.18
2022-10-25T05:12:35.195Z,9.13
2022-10-25T05:15:03.153Z,6.90
2022-10-25T05:17:31.222Z,7.30
2022-10-25T05:19:59.428Z,6.82
2022-10-25T05:22:27.379Z,7.82
2022-10-25T05:24:55.294Z,5.15
2022-10-25T05:27:24.635Z,4.70
2022-10-25T05:29:52.538Z,6.53
2022-10-25T05:32:20.461Z,7.00
2022-10-25T05:34:48.394Z,4.80
2022-10-25T05:37:16.329Z,6.57
2022-10-25T05:39:44.328Z,11.25
2022-10-25T05:42:12.275Z,8.50
2022-10-25T05:44:41.676Z,6.97
2022-10-25T05:47:09.675Z,8.15
2022-10-25T05:49:40.125Z,7.97
2022-10-25T05:52:08.279Z,8.70
2022-10-25T05:54:36.696Z,11.18
2022-10-25T05:57:04.789Z,9.93
2022-10-25T05:59:32.743Z,7.43
2022-10-25T06:02:02.152Z,10.13
2022-10-25T06:04:30.346Z,8.52
2022-10-25T06:06:58.251Z,11.27
2022-10-25T06:09:26.195Z,7.68
2022-10-25T06:11:54.227Z,7.70
2022-10-25T06:14:22.108Z,7.28
2022-10-25T06:16:50.054Z,11.18
2022-10-25T06:19:19.340Z,9.60
2022-10-25T06:21:47.832Z,7.88
2022-10-25T06:24:15.871Z,10.88
2022-10-25T06:26:43.835Z,8.68
2022-10-25T06:29:11.795Z,9.60
2022-10-25T06:31:39.801Z,7.85
2022-10-25T06:34:07.908Z,8.63
2022-10-25T06:36:37.229Z,8.02
2022-10-25T06:39:07.029Z,9.88
2022-10-25T06:41:36.992Z,8.35
2022-10-25T06:44:06.785Z,11.73
2022-10-25T06:46:57.862Z,8.07
2022-10-25T06:49:24.633Z,9.77
2022-10-25T06:51:53.992Z,11.30
2022-10-25T06:54:21.950Z,11.23
2022-10-25T06:56:51.397Z,8.75
2022-10-25T06:59:20.541Z,7.60
2022-10-25T07:01:48.792Z,9.65
2022-10-25T07:04:16.981Z,7.70
2022-10-25T07:06:44.973Z,9.90
2022-10-25T07:09:15.645Z,9.95
2022-10-25T07:11:45.685Z,6.88
2022-10-25T07:14:14.141Z,7.53
2022-10-25T07:16:42.186Z,8.95
2022-10-25T07:19:10.586Z,10.40
2022-10-25T07:21:38.631Z,7.47
2022-10-25T07:24:08.904Z,30.45
2022-10-25T07:26:38.342Z,11.32
2022-10-25T07:29:06.394Z,9.85
2022-10-25T07:31:36.160Z,10.13
2022-10-25T07:34:05.809Z,11.30
2022-10-25T07:36:34.086Z,8.40
2022-10-25T07:39:02.326Z,6.28
2022-10-25T07:41:30.289Z,7.00
2022-10-25T07:43:59.885Z,9.10
2022-10-25T07:46:27.824Z,6.50
2022-10-25T07:48:55.821Z,10.60
2022-10-25T07:51:25.418Z,5.65
2022-10-25T07:53:54.197Z,8.05
2022-10-25T07:56:23.591Z,4.97
2022-10-25T07:58:54.212Z,9.55
2022-10-25T08:01:28.543Z,7.90
2022-10-25T08:03:57.014Z,6.32
2022-10-25T08:06:26.605Z,8.32
2022-10-25T08:09:37.373Z,5.50
2022-10-25T08:12:06.080Z,8.77
2022-10-25T08:14:36.470Z,6.32
2022-10-25T08:17:09.874Z,9.63
2022-10-25T08:19:37.889Z,11.35
2022-10-25T08:22:06.047Z,7.85
2022-10-25T08:24:35.908Z,13.10
2022-10-25T08:27:03.871Z,5.90
2022-10-25T08:29:31.802Z,7.50
2022-10-25T08:32:00.705Z,5.78
2022-10-25T08:34:32.427Z,12.27
2022-10-25T08:37:01.241Z,7.70
2022-10-25T08:39:29.202Z,8.13
2022-10-25T08:41:59.109Z,8.18
2022-10-25T08:44:44.317Z,9.60
2022-10-25T08:47:16.494Z,8.50
2022-10-25T08:49:53.845Z,11.52
2022-10-25T08:52:28.414Z,8.30
2022-10-25T08:55:01.728Z,7.88
2022-10-25T08:57:34.963Z,6.60
2022-10-25T09:00:10.661Z,4.95
2022-10-25T09:02:46.789Z,7.30
2022-10-25T09:05:25.736Z,7.50
2022-10-25T09:08:07.460Z,6.85
2022-10-25T09:10:52.541Z,9.07
2022-10-25T09:13:31.034Z,7.00
2022-10-25T09:16:11.132Z,10.68
2022-10-25T09:18:45.952Z,8.82
2022-10-25T09:21:22.652Z,7.20
2022-10-25T09:23:59.875Z,8.05
2022-10-25T09:26:43.619Z,5.00
2022-10-25T09:29:18.891Z,6.97
2022-10-25T09:31:50.666Z,9.38
2022-10-25T09:34:22.545Z,4.47
2022-10-25T09:36:58.705Z,6.60
2022-10-25T09:39:35.061Z,5.75
2022-10-25T09:42:04.897Z,7.60
2022-10-25T09:44:40.419Z,5.22
2022-10-25T09:47:19.024Z,3.70
2022-10-25T09:49:52.931Z,6.20
2022-10-25T09:52:30.987Z,10.00
2022-10-25T09:55:16.681Z,7.45
2022-10-25T09:57:46.349Z,10.18
2022-10-25T10:00:16.099Z,6.90
2022-10-25T10:02:44.325Z,10.15
2022-10-25T10:05:16.333Z,5.60
2022-10-25T10:07:47.024Z,5.80
2022-10-25T10:10:18.572Z,5.22
2022-10-25T10:12:51.694Z,6.35
2022-10-25T10:15:24.611Z,4.25
2022-10-25T10:18:27.258Z,6.20
2022-10-25T10:21:01.881Z,14.05
2022-10-25T10:23:34.357Z,8.85
2022-10-25T10:26:09.911Z,5.18
2022-10-25T10:28:38.154Z,5.90
2022-10-25T10:31:08.860Z,4.65
2022-10-25T10:33:39.385Z,6.13
2022-10-25T10:36:28.637Z,4.75
2022-10-25T10:39:19.809Z,8.57
2022-10-25T10:42:03.273Z,5.45
2022-10-25T10:44:34.572Z,4.88
2022-10-25T10:47:03.381Z,5.68
2022-10-25T10:49:38.402Z,7.15
2022-10-25T10:52:07.225Z,6.40
2022-10-25T10:54:46.208Z,8.77
2022-10-25T10:57:28.681Z,4.90
2022-10-25T10:59:57.918Z,7.72
2022-10-25T11:02:34.412Z,6.47
2022-10-25T11:05:02.779Z,4.53
2022-10-25T11:07:34.528Z,5.22
2022-10-25T11:10:25.199Z,3.40
2022-10-25T11:13:25.697Z,4.55
2022-10-25T11:16:31.074Z,4.75
2022-10-25T11:19:40.703Z,7.28
2022-10-25T11:22:50.815Z,5.70
2022-10-25T11:25:35.216Z,4.45
2022-10-25T11:28:23.670Z,4.82
2022-10-25T11:31:02.547Z,6.70
2022-10-25T11:33:46.105Z,6.05
2022-10-25T11:36:24.727Z,7.95
2022-10-25T11:39:07.436Z,6.05
2022-10-25T11:41:46.458Z,6.40
2022-10-25T11:44:45.674Z,5.70
2022-10-25T11:47:26.965Z,5.20
2022-10-25T11:50:06.615Z,9.73
2022-10-25T11:52:59.713Z,6.28
2022-10-25T11:55:35.135Z,17.63
2022-10-25T11:58:20.777Z,31.48
2022-10-25T12:00:58.035Z,26.13
2022-10-25T12:03:49.658Z,43.03
2022-10-25T12:06:25.349Z,24.40
2022-10-25T12:09:05.479Z,13.50
2022-10-25T12:11:39.395Z,12.13
2022-10-25T12:14:13.693Z,10.80
2022-10-25T12:16:42.726Z,8.18
2022-10-25T12:19:19.257Z,5.10
2022-10-25T12:21:54.821Z,4.60
2022-10-25T12:24:29.787Z,5.97
2022-10-25T12:26:58.290Z,4.80
2022-10-25T12:29:34.697Z,6.82
2022-10-25T12:32:07.111Z,4.38
2022-10-25T12:34:41.834Z,4.72
2022-10-25T12:37:15.726Z,3.33
2022-10-25T12:39:45.455Z,7.57
2022-10-25T12:42:19.283Z,4.88
2022-10-25T12:45:16.481Z,4.78
2022-10-25T12:47:58.694Z,2.60
2022-10-25T12:50:44.895Z,4.30
2022-10-25T12:53:43.450Z,2.78
2022-10-25T12:56:22.684Z,3.83
2022-10-25T12:59:04.513Z,4.65
2022-10-25T13:01:50.167Z,5.07
2022-10-25T13:04:50.035Z,5.35
2022-10-25T13:07:20.292Z,5.43
2022-10-25T13:09:48.563Z,4.22
2022-10-25T13:12:22.762Z,4.10
2022-10-25T13:14:53.928Z,4.13
2022-10-25T13:17:48.337Z,4.28
2022-10-25T13:20:47.514Z,4.45
2022-10-25T13:24:02.401Z,6.22
2022-10-25T13:26:55.421Z,6.28
2022-10-25T13:30:00.675Z,2.92
2022-10-25T13:32:30.310Z,3.25
2022-10-25T13:34:59.881Z,5.28
2022-10-25T13:37:45.569Z,3.88
2022-10-25T13:40:27.815Z,3.42
2022-10-25T13:43:02.705Z,13.10
2022-10-25T13:45:38.950Z,4.78
2022-10-25T13:48:18.966Z,2.72
2022-10-25T13:50:53.627Z,4.40
2022-10-25T13:53:24.870Z,5.68
2022-10-25T13:56:03.706Z,3.00
2022-10-25T13:58:44.937Z,4.57
2022-10-25T14:02:00.742Z,5.43
2022-10-25T14:04:39.652Z,5.45
2022-10-25T14:07:47.250Z,6.13
2022-10-25T14:10:25.467Z,5.28
2022-10-25T14:12:59.076Z,5.30
2022-10-25T14:15:42.290Z,6.57
2022-10-25T14:18:17.697Z,4.45
2022-10-25T14:20:48.513Z,4.72
2022-10-25T14:23:22.578Z,4.30
2022-10-25T14:25:55.036Z,4.68
2022-10-25T14:28:25.870Z,2.95
2022-10-25T14:30:56.683Z,3.95
2022-10-25T14:33:27.597Z,2.78
2022-10-25T14:35:58.316Z,6.38
2022-10-25T14:38:28.863Z,5.90
2022-10-25T14:40:59.244Z,5.43
2022-10-25T14:43:31.871Z,6.38
2022-10-25T14:46:03.094Z,5.47
2022-10-25T14:48:31.631Z,4.65
2022-10-25T14:51:04.738Z,5.07
2022-10-25T14:53:35.195Z,8.48
2022-10-25T14:56:06.039Z,5.22
2022-10-25T14:58:41.106Z,3.33
2022-10-25T15:01:12.606Z,6.72
2022-10-25T15:03:43.552Z,4.35
2022-10-25T15:06:14.005Z,3.28
2022-10-25T15:08:50.719Z,5.22
2022-10-25T15:11:20.608Z,3.08
2022-10-25T15:13:51.217Z,5.63
2022-10-25T15:16:36.884Z,3.10
2022-10-25T15:19:18.367Z,6.68
2022-10-25T15:21:49.590Z,4.40
2022-10-25T15:24:21.924Z,3.67
2022-10-25T15:26:54.937Z,3.50
2022-10-25T15:29:45.821Z,6.10
2022-10-25T15:32:17.005Z,5.88
2022-10-25T15:34:47.753Z,3.78
2022-10-25T15:37:17.501Z,3.05
2022-10-25T15:39:48.741Z,3.47
2022-10-25T15:42:16.994Z,4.90
2022-10-25T15:44:45.502Z,4.05
2022-10-25T15:47:24.709Z,4.40
2022-10-25T15:49:54.061Z,6.47
2022-10-25T15:52:22.393Z,6.68
2022-10-25T15:54:51.833Z,4.10
2022-10-25T15:57:20.062Z,8.60
2022-10-25T15:59:48.065Z,7.47
2022-10-25T16:02:20.343Z,6.07
2022-10-25T16:04:48.754Z,8.27
2022-10-25T16:07:17.019Z,5.68
2022-10-25T16:09:44.977Z,5.43
2022-10-25T16:12:21.401Z,5.07
2022-10-25T16:14:51.515Z,6.93
2022-10-25T16:17:19.472Z,4.82
2022-10-25T16:19:47.506Z,5.68
2022-10-25T16:22:15.487Z,5.32
2022-10-25T16:24:43.471Z,4.22
2022-10-25T16:27:12.746Z,8.15
2022-10-25T16:29:42.335Z,5.25
2022-10-25T16:32:10.241Z,6.13
2022-10-25T16:34:42.381Z,4.90
2022-10-25T16:37:11.880Z,4.88
2022-10-25T16:39:40.403Z,5.28
2022-10-25T16:42:27.445Z,9.82
2022-10-25T16:44:57.085Z,6.10
2022-10-25T16:47:25.611Z,7.30
2022-10-25T16:49:53.547Z,5.68
2022-10-25T16:52:22.290Z,4.30
2022-10-25T16:54:50.309Z,7.47
2022-10-25T16:57:18.240Z,6.13
2022-10-25T16:59:46.532Z,5.40
2022-10-25T17:02:20.642Z,8.40
2022-10-25T17:04:49.485Z,10.48
2022-10-25T17:07:17.570Z,6.38
2022-10-25T17:09:45.561Z,7.38
2022-10-25T17:12:13.488Z,8.32
2022-10-25T17:14:41.582Z,5.85
2022-10-25T17:17:09.596Z,7.00
2022-10-25T17:19:39.059Z,6.55
2022-10-25T17:22:07.492Z,5.20
2022-10-25T17:24:37.498Z,5.75
2022-10-25T17:27:06.741Z,5.30
2022-10-25T17:29:35.175Z,11.48
2022-10-25T17:32:03.146Z,4.80
2022-10-25T17:34:32.025Z,4.82
2022-10-25T17:37:02.214Z,7.45
2022-10-25T17:39:30.500Z,10.50
2022-10-25T17:41:58.443Z,8.73
2022-10-25T17:44:26.427Z,6.35
2022-10-25T17:46:55.529Z,5.50
2022-10-25T17:49:25.288Z,7.30
2022-10-25T17:51:53.196Z,5.03
2022-10-25T17:54:22.714Z,5.32
2022-10-25T17:56:50.606Z,7.10
2022-10-25T17:59:18.525Z,5.72
2022-10-25T18:01:46.671Z,9.73
2022-10-25T18:04:14.693Z,9.20
2022-10-25T18:06:42.922Z,8.38
2022-10-25T18:09:11.002Z,6.53
2022-10-25T18:11:40.334Z,7.88
2022-10-25T18:14:08.313Z,10.00
2022-10-25T18:16:36.303Z,10.48
2022-10-25T18:19:06.207Z,8.20
2022-10-25T18:21:34.965Z,8.68
2022-10-25T18:24:05.840Z,14.38
2022-10-25T18:26:35.069Z,11.48
2022-10-25T18:29:04.584Z,12.85
2022-10-25T18:31:32.628Z,10.55
2022-10-25T18:34:03.379Z,9.90
2022-10-25T18:36:32.618Z,16.75
2022-10-25T18:39:00.941Z,10.52
2022-10-25T18:41:31.539Z,13.02
2022-10-25T18:44:00.211Z,10.15
2022-10-25T18:46:31.851Z,11.00
2022-10-25T18:48:59.856Z,12.00
2022-10-25T18:51:29.211Z,13.98
2022-10-25T18:53:58.177Z,17.92
2022-10-25T18:56:26.590Z,16.08
2022-10-25T18:58:56.642Z,15.50
2022-10-25T19:01:27.869Z,12.98
2022-10-25T19:03:58.328Z,18.40
2022-10-25T19:06:26.997Z,13.57
2022-10-25T19:08:55.547Z,13.77
2022-10-25T19:11:24.064Z,16.77
2022-10-25T19:13:54.621Z,15.18
2022-10-25T19:16:23.181Z,15.93
2022-10-25T19:18:51.952Z,13.15
2022-10-25T19:21:21.538Z,18.00
2022-10-25T19:23:49.711Z,16.80
2022-10-25T19:26:20.237Z,25.05
2022-10-25T19:28:48.626Z,17.85
2022-10-25T19:31:18.508Z,13.27
2022-10-25T19:33:47.362Z,16.85
2022-10-25T19:36:16.062Z,17.05
2022-10-25T19:38:48.140Z,15.85
2022-10-25T19:41:17.814Z,16.42
2022-10-25T19:43:46.668Z,15.40
2022-10-25T19:46:15.091Z,15.48
2022-10-25T19:48:43.098Z,16.75
2022-10-25T19:51:12.807Z,18.58
2022-10-25T19:53:46.129Z,16.40
2022-10-25T19:56:15.754Z,16.42
2022-10-25T19:58:43.710Z,17.92
2022-10-25T20:01:13.521Z,15.07
2022-10-25T20:03:42.583Z,15.25
2022-10-25T20:06:12.633Z,15.95
2022-10-25T20:08:41.317Z,19.52
2022-10-25T20:11:12.781Z,18.38
2022-10-25T20:13:41.158Z,17.77
2022-10-25T20:16:10.323Z,16.85
2022-10-25T20:18:41.489Z,20.50
2022-10-25T20:21:11.561Z,15.40
2022-10-25T20:23:41.405Z,17.90
2022-10-25T20:26:16.393Z,19.10
2022-10-25T20:28:44.730Z,21.25
2022-10-25T20:31:13.840Z,19.27
2022-10-25T20:33:42.318Z,20.55
2022-10-25T20:36:13.031Z,18.58
2022-10-25T20:38:41.509Z,18.95
2022-10-25T20:41:12.311Z,18.45
2022-10-25T20:43:43.098Z,16.08
2022-10-25T20:46:11.116Z,15.52
2022-10-25T20:48:39.226Z,17.73
2022-10-25T20:51:08.074Z,13.18
2022-10-25T20:53:36.993Z,17.88
2022-10-25T20:56:05.818Z,16.70
2022-10-25T20:58:35.008Z,16.63
2022-10-25T21:01:04.956Z,15.52
2022-10-25T21:03:34.228Z,16.35
2022-10-25T21:06:04.319Z,15.23
2022-10-25T21:08:32.799Z,18.83
2022-10-25T21:11:02.347Z,16.88
2022-10-25T21:13:31.816Z,17.15
2022-10-25T21:16:00.099Z,16.77
2022-10-25T21:18:30.101Z,17.35
2022-10-25T21:21:01.988Z,18.42
2022-10-25T21:23:31.108Z,18.10
2022-10-25T21:25:59.696Z,24.35
2022-10-25T21:28:28.031Z,17.70
2022-10-25T21:30:56.026Z,21.70
2022-10-25T21:33:23.962Z,30.35
2022-10-25T21:35:53.373Z,28.95
2022-10-25T21:38:21.845Z,18.60
2022-10-25T21:40:49.744Z,20.50
2022-10-25T21:43:17.751Z,26.45
2022-10-25T21:45:45.665Z,18.98
2022-10-25T21:48:13.626Z,17.08
2022-10-25T21:50:41.576Z,16.05
2022-10-25T21:53:10.959Z,18.35
2022-10-25T21:55:39.769Z,16.70
2022-10-25T21:58:07.834Z,13.88
2022-10-25T22:00:35.823Z,19.13
2022-10-25T22:03:03.864Z,19.27
2022-10-25T22:05:31.838Z,14.27
2022-10-25T22:07:59.788Z,14.98
2022-10-25T22:10:29.061Z,17.67
2022-10-25T22:12:57.430Z,15.90
2022-10-25T22:15:25.507Z,17.42
2022-10-25T22:17:53.492Z,18.45
2022-10-25T22:20:21.476Z,14.48
2022-10-25T22:22:49.580Z,19.52
2022-10-25T22:25:17.783Z,16.05
2022-10-25T22:27:47.082Z,16.45
2022-10-25T22:30:15.190Z,16.00
2022-10-25T22:32:43.158Z,14.82
2022-10-25T22:35:11.126Z,12.93
2022-10-25T22:37:39.014Z,16.58
2022-10-25T22:40:08.067Z,16.73
2022-10-25T22:42:35.982Z,18.10
2022-10-25T22:45:05.653Z,15.38
2022-10-25T22:47:33.631Z,16.20
2022-10-25T22:50:01.578Z,14.68
2022-10-25T22:52:29.559Z,15.90
2022-10-25T22:54:57.563Z,16.42
2022-10-25T22:57:26.747Z,12.10
2022-10-25T22:59:54.839Z,13.93
2022-10-25T23:02:24.213Z,18.25
2022-10-25T23:04:52.114Z,14.13
2022-10-25T23:07:20.042Z,12.23
2022-10-25T23:09:47.966Z,14.52
2022-10-25T23:12:15.888Z,15.05
2022-10-25T23:14:43.750Z,15.75
2022-10-25T23:17:11.665Z,12.80
2022-10-25T23:19:40.909Z,13.63
2022-10-25T23:22:08.870Z,15.68
2022-10-25T23:24:36.720Z,14.23
2022-10-25T23:27:04.811Z,12.43
2022-10-25T23:29:32.694Z,18.58
2022-10-25T23:32:00.566Z,16.05
2022-10-25T23:34:28.470Z,12.05
2022-10-25T23:36:57.784Z,13.57
2022-10-25T23:39:25.692Z,15.55
2022-10-25T23:41:56.882Z,19.25
2022-10-25T23:44:25.010Z,15.00
2022-10-25T23:46:52.898Z,15.02
2022-10-25T23:49:20.827Z,15.30
2022-10-25T23:51:48.727Z,10.73
2022-10-25T23:54:20.859Z,14.13
2022-10-25T23:56:48.801Z,16.38
2022-10-25T23:59:16.725Z,11.52
